Terminal Aerodrome Forecast
Issued by NWS Twin Cities, MN

Home | Current Version | Previous Version | Graphics & Text | Print | Product List | Glossary On
Versions: 1 2 3 4 5 6 7 8 9 10 11 12 13 14 15 16 17
000
FTUS43 KMPX 022118 AAB
TAFEAU
TAF AMD
KEAU 022118Z 0221/0318 31015G20KT P6SM VCSH BKN040
     FM030100 32009KT P6SM SCT060
     FM030600 28004KT P6SM SKC
     FM031500 30013G20KT P6SM SKC=

USA.gov is the U.S. government's official web portal to all federal, state and local government web resources and services.